Time;durP1;ratioP1;P1;durP2;ratioP2;P2;SDS_P1;SDS_P2;PMS_P1;PMS_P2;Temp;Humidity;BMP_temperature;BMP_pressure;BME280_temperature;BME280_humidity;BME280_pressure;Samples;Min_cycle;Max_cycle;Signal;HPM_P1;HPM_P2
2023/10/15 00:00:13;;;;;;;2.92;0.82;;;8.20;99.90;;;;;;5079975;28;20498;-88
2023/10/15 00:02:43;;;;;;;3.97;0.93;;;8.30;99.90;;;;;;5097442;28;20050;-88
2023/10/15 00:05:10;;;;;;;2.88;0.95;;;8.30;99.90;;;;;;5096289;28;20039;-88
2023/10/15 00:07:36;;;;;;;0.52;0.20;;;8.30;99.90;;;;;;5097165;28;20122;-88
2023/10/15 00:10:01;;;;;;;3.55;0.55;;;8.20;99.90;;;;;;5084815;28;20105;-88
2023/10/15 00:12:27;;;;;;;1.08;0.38;;;8.20;99.90;;;;;;5080843;28;20038;-89
2023/10/15 00:14:53;;;;;;;4.03;0.50;;;8.20;99.90;;;;;;5097795;28;20044;-89
2023/10/15 00:17:18;;;;;;;0.20;0.13;;;8.20;99.90;;;;;;5098989;28;20040;-89
2023/10/15 00:19:44;;;;;;;1.50;0.30;;;8.20;99.90;;;;;;5081614;28;20119;-89
2023/10/15 00:22:09;;;;;;;2.10;0.63;;;8.20;99.90;;;;;;5097924;28;20032;-88
2023/10/15 00:24:37;;;;;;;1.10;0.47;;;8.10;99.90;;;;;;5097734;28;20078;-88
2023/10/15 00:27:03;;;;;;;2.75;1.15;;;8.10;99.90;;;;;;5080165;28;20126;-88
2023/10/15 00:29:29;;;;;;;0.90;0.45;;;8.10;99.90;;;;;;5080195;28;20123;-88
2023/10/15 00:31:54;;;;;;;4.57;0.85;;;8.10;99.90;;;;;;5080613;28;20075;-88
2023/10/15 00:34:20;;;;;;;1.20;0.10;;;8.00;99.90;;;;;;5097593;28;20100;-88
2023/10/15 00:36:48;;;;;;;1.90;0.47;;;8.00;99.90;;;;;;5097309;28;20553;-88
2023/10/15 00:39:20;;;;;;;2.22;0.45;;;8.00;99.90;;;;;;5079866;28;20093;-88
2023/10/15 00:41:50;;;;;;;0.50;0.20;;;8.10;99.90;;;;;;5080194;28;20036;-88
2023/10/15 00:44:16;;;;;;;0.38;0.30;;;8.00;99.90;;;;;;5080025;28;20514;-88
2023/10/15 00:46:45;;;;;;;1.58;0.55;;;8.00;99.90;;;;;;5080150;28;20081;-88
2023/10/15 00:49:14;;;;;;;1.17;0.22;;;8.00;99.90;;;;;;5079874;28;20039;-89
2023/10/15 00:51:44;;;;;;;2.13;0.75;;;8.00;99.90;;;;;;5079927;28;20040;-89
2023/10/15 00:54:15;;;;;;;1.65;0.90;;;7.90;99.90;;;;;;5096953;28;20067;-89
2023/10/15 00:56:44;;;;;;;5.38;1.27;;;7.90;99.90;;;;;;5096944;28;20498;-88
2023/10/15 01:01:42;;;;;;;0.90;0.15;;;7.90;99.90;;;;;;5096793;28;20044;-87
2023/10/15 01:04:09;;;;;;;0.88;0.30;;;7.90;99.90;;;;;;5103919;28;20522;-88
2023/10/15 01:06:45;;;;;;;1.50;0.30;;;7.90;99.90;;;;;;5079861;28;20032;-87
2023/10/15 01:09:27;;;;;;;1.77;0.52;;;7.90;99.90;;;;;;5095618;28;20046;-87
2023/10/15 01:11:57;;;;;;;3.05;0.60;;;7.90;99.90;;;;;;5079933;28;20414;-87
2023/10/15 01:14:31;;;;;;;5.15;0.88;;;7.90;99.90;;;;;;5079742;28;20039;-87
2023/10/15 01:16:59;;;;;;;2.38;0.60;;;7.90;99.90;;;;;;5096409;28;20039;-88
2023/10/15 01:19:33;;;;;;;1.65;0.45;;;7.90;99.90;;;;;;5079624;28;20031;-88
2023/10/15 01:22:08;;;;;;;3.92;0.50;;;7.90;99.90;;;;;;5100866;28;20063;-87
2023/10/15 01:24:36;;;;;;;2.38;0.57;;;7.90;99.90;;;;;;5078239;28;20509;-87
2023/10/15 01:27:10;;;;;;;1.50;0.30;;;8.00;99.90;;;;;;5078229;28;20043;-88
2023/10/15 01:29:44;;;;;;;1.75;0.63;;;7.90;99.90;;;;;;5078650;28;20044;-88
2023/10/15 01:32:11;;;;;;;1.15;0.40;;;8.00;99.90;;;;;;5096616;28;20044;-87
2023/10/15 01:34:48;;;;;;;0.52;0.32;;;8.00;99.90;;;;;;5078920;28;20085;-87
2023/10/15 01:39:48;;;;;;;5.50;0.65;;;8.00;99.90;;;;;;5096060;28;20523;-88
2023/10/15 01:45:09;;;;;;;1.98;0.57;;;8.00;99.90;;;;;;5096420;28;20418;-88
2023/10/15 01:47:36;;;;;;;1.35;0.30;;;8.00;99.90;;;;;;5078819;28;20046;-88
2023/10/15 01:50:08;;;;;;;3.53;0.45;;;8.00;99.90;;;;;;5078612;28;20089;-88
2023/10/15 01:52:43;;;;;;;1.63;0.40;;;7.90;99.90;;;;;;5095830;28;20039;-88
2023/10/15 01:55:12;;;;;;;1.02;0.47;;;7.90;99.90;;;;;;5078569;28;20490;-88
2023/10/15 01:57:39;;;;;;;0.85;0.22;;;7.90;99.90;;;;;;5079009;28;20077;-88
2023/10/15 02:00:13;;;;;;;1.60;0.60;;;8.00;99.90;;;;;;5101757;28;20421;-87
2023/10/15 02:02:43;;;;;;;0.10;0.10;;;8.00;99.90;;;;;;5078266;28;20040;-87
2023/10/15 02:07:53;;;;;;;0.80;0.25;;;7.90;99.90;;;;;;5095291;28;20043;-88
2023/10/15 02:10:22;;;;;;;0.40;0.13;;;7.90;99.90;;;;;;5078495;28;20446;-88
2023/10/15 02:12:59;;;;;;;0.85;0.32;;;7.90;99.90;;;;;;5078756;28;20118;-88
2023/10/15 02:15:38;;;;;;;2.60;0.63;;;7.80;99.90;;;;;;5095634;28;20031;-88
2023/10/15 02:18:05;;;;;;;3.00;0.35;;;7.80;99.90;;;;;;5078659;28;20490;-88
2023/10/15 02:23:08;;;;;;;0.93;0.43;;;7.70;99.90;;;;;;5095103;28;20039;-88
2023/10/15 02:25:37;;;;;;;1.75;0.30;;;7.70;99.90;;;;;;5103706;28;20136;-87
2023/10/15 02:28:03;;;;;;;1.85;0.50;;;7.70;99.90;;;;;;5077613;28;20047;-88
2023/10/15 02:30:32;;;;;;;0.90;0.40;;;7.60;99.90;;;;;;5089588;28;20040;-87
2023/10/15 02:33:01;;;;;;;4.72;0.80;;;7.60;99.90;;;;;;5108421;28;20118;-88
2023/10/15 02:35:32;;;;;;;1.65;0.47;;;7.60;99.90;;;;;;5079896;28;20039;-88
2023/10/15 02:37:58;;;;;;;2.65;0.73;;;7.60;99.90;;;;;;5096455;28;20040;-88
2023/10/15 02:40:35;;;;;;;0.47;0.20;;;7.50;99.90;;;;;;5078975;28;20036;-88
2023/10/15 02:43:06;;;;;;;0.98;0.10;;;7.50;99.90;;;;;;5096707;28;20057;-88
2023/10/15 02:45:43;;;;;;;1.35;0.30;;;7.50;99.90;;;;;;5080215;28;20407;-88
2023/10/15 02:48:19;;;;;;;1.35;0.25;;;7.40;99.90;;;;;;5086522;28;20051;-88
2023/10/15 02:50:58;;;;;;;0.90;0.30;;;7.40;99.90;;;;;;5085825;28;20042;-87
2023/10/15 02:53:23;;;;;;;3.45;1.48;;;7.30;99.90;;;;;;5094678;28;20047;-88
2023/10/15 02:55:49;;;;;;;0.80;0.30;;;7.30;99.90;;;;;;5077326;28;20046;-87
2023/10/15 02:58:16;;;;;;;1.80;0.20;;;7.20;99.90;;;;;;5094224;28;20108;-88
2023/10/15 03:00:42;;;;;;;1.38;0.20;;;7.20;99.90;;;;;;5093912;28;20035;-88
2023/10/15 03:03:08;;;;;;;1.13;0.40;;;7.20;99.90;;;;;;5093830;28;20122;-88
2023/10/15 03:05:39;;;;;;;2.70;0.32;;;7.20;99.90;;;;;;5077547;28;20047;-88
2023/10/15 03:08:05;;;;;;;1.90;0.60;;;7.10;99.90;;;;;;5094301;28;20046;-88
2023/10/15 03:10:50;;;;;;;3.42;0.60;;;7.10;99.90;;;;;;5077813;28;20039;-88
2023/10/15 03:13:15;;;;;;;1.45;0.38;;;7.10;99.90;;;;;;5077000;28;20039;-88
2023/10/15 03:15:51;;;;;;;1.75;0.60;;;7.10;99.90;;;;;;5076409;28;20078;-88
2023/10/15 03:18:23;;;;;;;0.55;0.47;;;7.10;99.90;;;;;;5093624;28;20521;-88
2023/10/15 03:21:08;;;;;;;4.45;0.70;;;7.00;99.90;;;;;;5076155;28;20506;-87
2023/10/15 03:23:34;;;;;;;2.38;0.30;;;7.00;99.90;;;;;;5077018;28;20130;-87
2023/10/15 03:25:59;;;;;;;0.85;0.45;;;6.90;99.90;;;;;;5094376;28;20047;-88
2023/10/15 03:28:25;;;;;;;0.73;0.10;;;6.90;99.90;;;;;;5076371;28;20042;-88
2023/10/15 03:30:54;;;;;;;0.40;0.28;;;6.90;99.90;;;;;;5093618;28;20456;-88
2023/10/15 03:33:23;;;;;;;3.95;0.63;;;6.90;99.90;;;;;;5094142;28;20453;-88
2023/10/15 03:35:54;;;;;;;1.65;0.47;;;6.80;99.90;;;;;;5093470;28;20047;-88
2023/10/15 03:38:24;;;;;;;3.13;0.32;;;6.90;99.90;;;;;;5077185;28;20039;-88
2023/10/15 03:41:10;;;;;;;2.67;0.52;;;6.80;99.90;;;;;;5093552;28;20043;-88
2023/10/15 03:43:36;;;;;;;3.95;0.57;;;6.80;99.90;;;;;;5093341;28;20152;-88
2023/10/15 03:46:16;;;;;;;3.72;0.63;;;6.80;99.90;;;;;;5093665;28;20473;-88
2023/10/15 03:48:47;;;;;;;3.60;0.40;;;6.80;99.90;;;;;;5093693;28;20048;-89
2023/10/15 03:51:23;;;;;;;1.85;0.50;;;6.80;99.90;;;;;;5093308;28;20059;-89
2023/10/15 03:53:52;;;;;;;3.00;0.35;;;6.80;99.90;;;;;;5076999;28;20126;-88
2023/10/15 03:56:19;;;;;;;6.43;0.57;;;6.80;99.90;;;;;;5076631;28;20040;-88
2023/10/15 03:58:50;;;;;;;2.20;0.93;;;6.80;99.90;;;;;;5093411;28;20039;-88
2023/10/15 04:01:17;;;;;;;0.52;0.47;;;6.80;99.90;;;;;;5076005;28;20071;-88
2023/10/15 04:03:43;;;;;;;2.40;0.95;;;6.70;99.90;;;;;;5093822;28;20043;-88
2023/10/15 04:06:10;;;;;;;3.50;0.50;;;6.70;99.90;;;;;;5077250;28;20047;-88
2023/10/15 04:08:39;;;;;;;2.30;0.55;;;6.70;99.90;;;;;;5093371;28;20078;-88
2023/10/15 04:11:06;;;;;;;2.78;0.38;;;6.60;99.90;;;;;;5093774;28;20410;-87
2023/10/15 04:13:32;;;;;;;0.57;0.17;;;6.60;99.90;;;;;;5093845;28;20118;-88
2023/10/15 04:15:58;;;;;;;1.35;0.50;;;6.60;99.90;;;;;;5076122;28;20439;-87
2023/10/15 04:18:25;;;;;;;0.82;0.40;;;6.60;99.90;;;;;;5076669;28;20149;-89
2023/10/15 04:20:55;;;;;;;3.67;0.68;;;6.50;99.90;;;;;;5093442;28;20040;-88
2023/10/15 04:23:30;;;;;;;1.67;0.50;;;6.40;99.90;;;;;;5075773;28;20118;-88
2023/10/15 04:26:05;;;;;;;2.17;0.45;;;6.40;99.90;;;;;;5075921;28;20040;-87
2023/10/15 04:28:33;;;;;;;1.38;0.47;;;6.30;99.90;;;;;;5081831;28;20448;-88
2023/10/15 04:30:59;;;;;;;1.00;0.40;;;6.30;99.90;;;;;;5075251;28;20036;-88
2023/10/15 04:33:27;;;;;;;1.42;0.30;;;6.30;99.90;;;;;;5092213;28;20035;-87
2023/10/15 04:35:56;;;;;;;0.55;0.30;;;6.30;99.90;;;;;;5093203;28;20036;-88
2023/10/15 04:38:23;;;;;;;1.38;0.43;;;6.30;99.90;;;;;;5093442;28;20510;-88
2023/10/15 04:43:27;;;;;;;3.40;0.70;;;6.30;99.90;;;;;;5104649;28;20044;-88
2023/10/15 04:45:57;;;;;;;0.40;0.20;;;6.40;99.90;;;;;;5080515;28;20043;-88
2023/10/15 04:48:27;;;;;;;2.60;0.93;;;6.40;99.90;;;;;;5080221;28;20118;-88
2023/10/15 04:50:53;;;;;;;4.50;0.68;;;6.40;99.90;;;;;;5097354;28;20043;-88
2023/10/15 04:55:48;;;;;;;1.17;0.40;;;6.30;99.90;;;;;;5096857;28;20040;-88
2023/10/15 04:58:14;;;;;;;3.20;0.77;;;6.30;99.90;;;;;;5096524;28;20047;-88
2023/10/15 05:00:41;;;;;;;1.42;0.50;;;6.30;99.90;;;;;;5099966;28;20039;-88
2023/10/15 05:03:06;;;;;;;1.65;0.73;;;6.20;99.90;;;;;;5080922;28;20467;-88
2023/10/15 05:05:32;;;;;;;0.52;0.22;;;6.20;99.90;;;;;;5080548;28;20073;-88
2023/10/15 05:08:00;;;;;;;1.98;0.80;;;6.20;99.90;;;;;;5081365;28;20441;-88
2023/10/15 05:10:33;;;;;;;5.90;0.95;;;6.20;99.90;;;;;;5096771;28;20044;-88
2023/10/15 05:12:59;;;;;;;1.73;0.43;;;6.20;99.90;;;;;;5096927;28;20036;-88
2023/10/15 05:15:27;;;;;;;1.27;0.70;;;6.30;99.90;;;;;;5096634;28;20079;-88
2023/10/15 05:17:53;;;;;;;1.83;0.65;;;6.30;99.90;;;;;;5096477;28;20035;-88
2023/10/15 05:20:20;;;;;;;2.55;0.43;;;6.40;99.90;;;;;;5104834;28;20089;-88
2023/10/15 05:22:49;;;;;;;2.33;0.55;;;6.40;99.90;;;;;;5078704;28;20426;-88
2023/10/15 05:25:18;;;;;;;0.93;0.45;;;6.50;99.90;;;;;;5079080;28;20896;-88
2023/10/15 05:27:44;;;;;;;3.67;0.73;;;6.60;99.90;;;;;;5079167;28;20410;-88
2023/10/15 05:30:12;;;;;;;4.90;0.73;;;6.60;99.90;;;;;;5095605;28;20075;-88
2023/10/15 05:32:37;;;;;;;0.00;0.00;;;6.70;99.90;;;;;;5079422;28;20518;-88
2023/10/15 05:35:08;;;;;;;0.70;0.35;;;6.70;99.90;;;;;;5087666;28;20032;-88
2023/10/15 05:37:39;;;;;;;0.65;0.20;;;6.70;99.90;;;;;;5078991;28;20523;-88
2023/10/15 05:40:06;;;;;;;2.20;0.38;;;6.80;99.90;;;;;;5079202;28;20088;-88
2023/10/15 05:42:32;;;;;;;1.67;0.40;;;6.80;99.90;;;;;;5095824;28;20040;-88
2023/10/15 05:44:57;;;;;;;1.73;0.40;;;6.90;99.90;;;;;;5079205;28;20036;-88
2023/10/15 05:47:23;;;;;;;1.35;0.20;;;6.90;99.90;;;;;;5079107;28;20484;-88
2023/10/15 05:49:49;;;;;;;0.10;0.10;;;6.90;99.90;;;;;;5078936;28;20046;-88
2023/10/15 05:52:15;;;;;;;3.20;0.52;;;6.90;99.90;;;;;;5095332;28;20490;-88
2023/10/15 05:54:41;;;;;;;1.63;0.40;;;6.90;99.90;;;;;;5078058;28;20040;-88
2023/10/15 05:57:07;;;;;;;0.10;0.10;;;7.00;99.90;;;;;;5095369;28;20071;-87
2023/10/15 05:59:36;;;;;;;1.23;0.38;;;7.00;99.90;;;;;;5086150;27;20067;-88
2023/10/15 06:02:02;;;;;;;2.17;0.47;;;7.00;99.90;;;;;;5101472;28;20050;-88
2023/10/15 06:04:28;;;;;;;2.28;0.43;;;7.10;99.90;;;;;;5078906;28;20051;-87
2023/10/15 06:06:55;;;;;;;1.45;0.30;;;7.10;99.90;;;;;;5097907;28;20039;-87
2023/10/15 06:09:20;;;;;;;2.05;0.35;;;7.10;99.90;;;;;;5079357;28;20083;-88
2023/10/15 06:11:46;;;;;;;3.40;0.50;;;7.10;99.90;;;;;;5104366;28;20077;-88
2023/10/15 06:14:11;;;;;;;0.77;0.30;;;7.10;99.90;;;;;;5079881;28;20040;-88
2023/10/15 06:16:37;;;;;;;6.65;0.47;;;7.10;99.90;;;;;;5078710;28;20119;-88
2023/10/15 06:19:03;;;;;;;1.02;0.38;;;7.10;99.90;;;;;;5095512;28;20514;-88
2023/10/15 06:21:29;;;;;;;2.00;0.38;;;7.10;99.90;;;;;;5095747;28;20039;-88
2023/10/15 06:23:54;;;;;;;0.17;0.10;;;7.10;99.90;;;;;;5086821;27;20088;-88
2023/10/15 06:26:20;;;;;;;1.65;0.45;;;7.10;99.90;;;;;;5103954;28;20387;-88
2023/10/15 06:28:45;;;;;;;1.77;0.30;;;7.10;99.90;;;;;;5078020;28;20078;-88
2023/10/15 06:31:11;;;;;;;0.73;0.20;;;7.10;99.90;;;;;;5102833;28;20499;-88
2023/10/15 06:33:40;;;;;;;1.80;0.47;;;7.10;99.90;;;;;;5078351;28;20043;-88
2023/10/15 06:36:09;;;;;;;1.88;0.30;;;7.10;99.90;;;;;;5086409;28;20038;-88
2023/10/15 06:38:35;;;;;;;5.63;0.52;;;7.20;99.90;;;;;;5077936;28;20035;-88
2023/10/15 06:41:01;;;;;;;1.90;0.10;;;7.20;99.90;;;;;;5077267;28;20047;-87
2023/10/15 06:43:27;;;;;;;0.80;0.13;;;7.20;99.90;;;;;;5078291;28;20046;-87
2023/10/15 06:45:53;;;;;;;1.25;0.35;;;7.20;99.90;;;;;;5078347;28;20054;-87
2023/10/15 06:48:22;;;;;;;1.00;0.20;;;7.20;99.90;;;;;;5094978;28;20035;-88
2023/10/15 06:50:48;;;;;;;0.25;0.13;;;7.20;99.90;;;;;;5098937;28;20398;-88
2023/10/15 06:53:14;;;;;;;3.10;0.50;;;7.30;99.90;;;;;;5078380;28;20095;-88
2023/10/15 06:55:42;;;;;;;1.23;0.30;;;7.20;99.90;;;;;;5077495;28;20586;-88
2023/10/15 06:58:10;;;;;;;1.20;0.25;;;7.30;99.90;;;;;;5101865;28;20044;-88
2023/10/15 07:00:36;;;;;;;0.10;0.10;;;7.20;99.90;;;;;;5094717;28;20047;-88
2023/10/15 07:03:02;;;;;;;1.83;0.30;;;7.20;99.90;;;;;;5077432;28;20038;-89
2023/10/15 07:05:28;;;;;;;1.33;0.38;;;7.20;99.90;;;;;;5078389;28;20035;-88
2023/10/15 07:07:56;;;;;;;0.90;0.30;;;7.20;99.90;;;;;;5080979;28;20039;-89
2023/10/15 07:10:22;;;;;;;0.90;0.30;;;7.20;99.90;;;;;;5096783;28;20625;-88
2023/10/15 07:12:50;;;;;;;1.00;0.10;;;7.20;99.90;;;;;;5077078;28;20042;-88
2023/10/15 07:15:16;;;;;;;0.90;0.30;;;7.20;99.90;;;;;;5093940;28;20570;-89
2023/10/15 07:17:43;;;;;;;0.43;0.10;;;7.20;99.90;;;;;;5103029;28;20044;-88
2023/10/15 07:20:21;;;;;;;0.77;0.08;;;7.20;99.90;;;;;;5077342;28;20115;-89
2023/10/15 07:22:48;;;;;;;0.00;0.00;;;7.20;99.90;;;;;;5094416;28;20074;-89
2023/10/15 07:25:16;;;;;;;2.33;0.30;;;7.20;99.90;;;;;;5076196;28;20034;-88
2023/10/15 07:27:45;;;;;;;0.65;0.32;;;7.20;99.90;;;;;;5097706;28;20498;-88
2023/10/15 07:30:15;;;;;;;5.38;0.22;;;7.20;99.90;;;;;;5085737;28;20050;-88
2023/10/15 07:32:44;;;;;;;2.95;0.43;;;7.20;99.90;;;;;;5094502;28;20046;-88
2023/10/15 07:35:11;;;;;;;1.77;0.28;;;7.20;99.90;;;;;;5096895;28;20054;-88
2023/10/15 07:37:41;;;;;;;3.30;0.45;;;7.20;99.90;;;;;;5104131;28;20054;-89
2023/10/15 07:40:17;;;;;;;1.30;0.38;;;7.20;99.90;;;;;;5076979;28;20418;-88
2023/10/15 07:42:49;;;;;;;2.05;0.45;;;7.20;99.90;;;;;;5094549;28;20047;-88
2023/10/15 07:45:16;;;;;;;1.67;0.47;;;7.20;99.90;;;;;;5077515;28;20074;-88
2023/10/15 07:47:41;;;;;;;0.45;0.10;;;7.20;99.90;;;;;;5093251;28;20043;-88
2023/10/15 07:50:09;;;;;;;2.45;0.57;;;7.30;99.90;;;;;;5076672;28;20058;-88
2023/10/15 07:52:37;;;;;;;1.83;0.28;;;7.40;99.90;;;;;;5093558;28;20038;-88
2023/10/15 07:55:05;;;;;;;1.27;0.35;;;7.40;99.90;;;;;;5076472;28;20031;-88
2023/10/15 07:57:31;;;;;;;0.80;0.30;;;7.50;99.90;;;;;;5098657;28;20048;-88
2023/10/15 07:59:58;;;;;;;2.08;0.90;;;7.50;99.90;;;;;;5087721;28;20032;-88
2023/10/15 08:02:26;;;;;;;3.15;0.52;;;7.50;99.90;;;;;;5089152;28;20493;-88
2023/10/15 08:04:54;;;;;;;1.65;0.43;;;7.50;99.90;;;;;;5093328;28;20051;-89
2023/10/15 08:07:20;;;;;;;1.23;0.30;;;7.50;99.90;;;;;;5076044;28;20036;-87
2023/10/15 08:09:46;;;;;;;0.77;0.30;;;7.50;99.90;;;;;;5097134;28;20048;-89
2023/10/15 08:12:11;;;;;;;1.35;0.35;;;7.50;99.90;;;;;;5077488;28;20578;-88
2023/10/15 08:14:38;;;;;;;1.95;0.30;;;7.50;99.90;;;;;;5096728;28;20039;-88
2023/10/15 08:17:03;;;;;;;0.22;0.20;;;7.50;99.90;;;;;;5081487;28;20410;-88
2023/10/15 08:19:29;;;;;;;0.55;0.20;;;7.50;99.90;;;;;;5081039;28;20036;-89
2023/10/15 08:21:54;;;;;;;0.90;0.25;;;7.50;99.90;;;;;;5086032;28;20043;-89
2023/10/15 08:24:20;;;;;;;1.15;0.30;;;7.60;99.90;;;;;;5080523;28;20031;-88
2023/10/15 08:26:47;;;;;;;0.50;0.35;;;7.60;99.90;;;;;;5101991;28;20546;-88
2023/10/15 08:29:13;;;;;;;4.85;0.70;;;7.70;99.90;;;;;;5085746;28;20039;-88
2023/10/15 08:31:38;;;;;;;2.53;0.57;;;7.70;99.90;;;;;;5093660;28;20067;-89
2023/10/15 08:34:04;;;;;;;2.60;0.63;;;7.80;99.90;;;;;;5107585;28;20090;-88
2023/10/15 08:36:30;;;;;;;2.90;0.45;;;7.80;99.90;;;;;;5098826;28;20050;-88
2023/10/15 08:38:55;;;;;;;4.22;0.50;;;7.80;99.90;;;;;;5081206;28;20035;-89
2023/10/15 08:41:24;;;;;;;1.10;0.30;;;7.80;99.90;;;;;;5081396;28;20040;-88
2023/10/15 08:43:51;;;;;;;1.40;0.45;;;7.80;99.90;;;;;;5104608;28;20097;-89
2023/10/15 08:46:24;;;;;;;0.68;0.20;;;7.80;99.90;;;;;;5088122;28;20399;-88
2023/10/15 08:48:51;;;;;;;;;;;7.90;99.90;;;;;;5101548;28;20551;-89
2023/10/15 08:51:23;;;;;;;1.67;0.20;;;7.90;99.90;;;;;;5079482;28;19976;-88
2023/10/15 08:53:53;;;;;;;0.90;0.00;;;8.00;99.90;;;;;;5097377;28;20503;-89
2023/10/15 08:56:22;;;;;;;3.40;0.75;;;8.00;99.90;;;;;;5072117;28;20071;-88
2023/10/15 08:58:56;;;;;;;2.15;0.30;;;8.10;99.90;;;;;;5088963;27;20436;-89
2023/10/15 09:01:23;;;;;;;0.55;0.10;;;8.10;99.90;;;;;;5097272;28;20046;-89
2023/10/15 09:03:52;;;;;;;0.80;0.20;;;8.20;99.90;;;;;;5087923;28;20070;-88
2023/10/15 09:06:19;;;;;;;1.48;0.10;;;8.20;99.90;;;;;;5086066;27;20454;-88
2023/10/15 09:08:45;;;;;;;0.03;0.03;;;8.30;99.90;;;;;;5105903;27;20039;-89
2023/10/15 09:11:11;;;;;;;1.38;0.30;;;8.40;99.90;;;;;;5090319;27;20031;-88
2023/10/15 09:13:40;;;;;;;0.57;0.30;;;8.50;99.90;;;;;;5089381;27;20412;-88
2023/10/15 09:16:07;;;;;;;1.00;0.40;;;8.50;99.90;;;;;;5106698;27;20039;-88
2023/10/15 09:18:36;;;;;;;0.90;0.30;;;8.60;99.90;;;;;;5090213;27;20039;-89
2023/10/15 09:21:06;;;;;;;0.95;0.30;;;8.70;99.90;;;;;;5090707;27;20070;-88
2023/10/15 09:23:35;;;;;;;4.28;0.38;;;8.70;99.90;;;;;;5086874;27;20160;-88
2023/10/15 09:26:01;;;;;;;1.98;0.13;;;8.70;99.90;;;;;;5089377;27;20070;-88
2023/10/15 09:28:29;;;;;;;0.77;0.13;;;8.80;99.90;;;;;;5097051;28;20565;-88
2023/10/15 09:31:05;;;;;;;3.47;0.50;;;8.90;99.90;;;;;;5079357;28;20043;-88
2023/10/15 09:33:32;;;;;;;3.20;0.73;;;9.10;99.90;;;;;;5079140;28;20482;-87
2023/10/15 09:35:59;;;;;;;1.63;0.40;;;9.20;99.90;;;;;;5096461;28;20063;-88
2023/10/15 09:38:25;;;;;;;2.92;0.80;;;9.30;99.90;;;;;;5079071;28;20067;-88
2023/10/15 09:40:55;;;;;;;3.30;0.50;;;9.40;99.90;;;;;;5096192;28;20119;-88
2023/10/15 09:43:28;;;;;;;1.23;0.47;;;9.50;99.90;;;;;;5078602;28;20042;-88
2023/10/15 09:45:57;;;;;;;7.28;0.93;;;9.50;99.90;;;;;;5095584;28;20042;-88
2023/10/15 09:48:24;;;;;;;2.45;0.52;;;9.50;99.90;;;;;;5096064;28;20459;-88
2023/10/15 09:50:52;;;;;;;2.15;0.50;;;9.40;99.90;;;;;;5079372;28;20078;-89
2023/10/15 09:53:21;;;;;;;3.30;0.70;;;9.50;99.90;;;;;;5104290;28;20043;-89
2023/10/15 09:55:48;;;;;;;7.65;1.00;;;9.60;99.90;;;;;;5079118;28;20043;-89
2023/10/15 09:58:15;;;;;;;4.28;0.60;;;9.70;99.90;;;;;;5079088;28;20468;-89
2023/10/15 10:03:29;;;;;;;;;;;9.90;99.90;;;;;;5089008;28;20067;-89
2023/10/15 10:06:39;;;;;;;3.10;0.70;;;10.00;99.90;;;;;;5079752;28;19937;-89
2023/10/15 10:09:24;;;;;;;1.70;0.60;;;10.20;99.90;;;;;;5058242;28;20051;-89
2023/10/15 10:12:11;;;;;;;2.70;0.50;;;10.30;99.90;;;;;;5078449;28;20039;-89
2023/10/15 10:15:10;;;;;;;5.53;0.60;;;10.40;99.90;;;;;;5077476;28;20040;-89
2023/10/15 10:17:38;;;;;;;3.38;0.60;;;10.50;99.90;;;;;;5078576;28;20579;-89
2023/10/15 10:20:11;;;;;;;3.65;0.30;;;10.70;99.90;;;;;;5086591;28;20031;-89
2023/10/15 10:22:38;;;;;;;8.02;1.52;;;10.70;99.90;;;;;;5078567;28;20127;-89
2023/10/15 10:25:06;;;;;;;1.88;0.25;;;10.80;99.90;;;;;;5084291;28;20041;-89
2023/10/15 10:27:42;;;;;;;0.57;0.20;;;10.70;99.90;;;;;;5078382;28;20043;-89
2023/10/15 10:30:28;;;;;;;1.75;0.38;;;10.70;99.90;;;;;;5078379;28;20490;-89
2023/10/15 10:33:31;;;;;;;3.28;0.47;;;10.80;99.90;;;;;;5081602;28;20042;-89
2023/10/15 10:36:09;;;;;;;3.70;0.50;;;10.90;99.90;;;;;;5094697;28;20079;-89
2023/10/15 10:38:35;;;;;;;2.47;0.45;;;11.00;99.90;;;;;;5095261;28;20054;-88
2023/10/15 10:41:07;;;;;;;2.45;0.30;;;11.10;99.90;;;;;;5078044;28;20499;-88
2023/10/15 10:43:33;;;;;;;6.22;0.98;;;11.20;99.90;;;;;;5078110;28;20043;-88
2023/10/15 10:46:02;;;;;;;5.68;0.75;;;11.10;99.90;;;;;;5094629;28;20180;-88
2023/10/15 10:48:33;;;;;;;2.40;0.65;;;11.00;99.90;;;;;;5077985;28;20043;-89
2023/10/15 10:51:21;;;;;;;1.45;0.20;;;11.00;99.90;;;;;;5077942;28;20116;-88
2023/10/15 10:53:56;;;;;;;2.40;0.30;;;10.80;99.90;;;;;;5094605;28;20123;-88
2023/10/15 10:56:40;;;;;;;1.23;0.38;;;10.70;99.90;;;;;;5077626;28;20127;-88
2023/10/15 10:59:12;;;;;;;5.63;1.23;;;10.70;99.90;;;;;;5094650;28;20092;-88
2023/10/15 11:01:43;;;;;;;2.15;0.60;;;10.70;99.90;;;;;;5100034;28;20046;-88
2023/10/15 11:04:10;;;;;;;8.82;1.50;;;10.70;99.90;;;;;;5074844;28;20035;-88
2023/10/15 11:06:37;;;;;;;1.48;0.63;;;10.80;99.90;;;;;;5125731;27;20050;-88
2023/10/15 11:09:15;;;;;;;1.48;0.32;;;10.80;99.90;;;;;;5094042;28;20111;-89
2023/10/15 11:11:46;;;;;;;0.57;0.20;;;10.80;99.90;;;;;;5093977;28;20039;-87
2023/10/15 11:14:12;;;;;;;3.47;0.40;;;10.80;99.90;;;;;;5077100;28;20035;-89
2023/10/15 11:16:42;;;;;;;0.88;0.32;;;10.80;99.90;;;;;;5076602;28;20080;-89
2023/10/15 11:19:32;;;;;;;1.92;0.40;;;10.90;99.90;;;;;;5077046;28;20447;-89
2023/10/15 11:21:58;;;;;;;0.32;0.10;;;11.00;99.90;;;;;;5080244;28;20434;-89
2023/10/15 11:24:26;;;;;;;1.23;0.20;;;11.20;99.90;;;;;;5077293;28;20036;-89
2023/10/15 11:26:56;;;;;;;3.40;0.30;;;11.30;99.90;;;;;;5083413;27;20112;-90
2023/10/15 11:29:23;;;;;;;1.02;0.25;;;11.50;99.90;;;;;;5080185;28;20040;-89
2023/10/15 11:31:55;;;;;;;5.15;0.75;;;11.60;99.90;;;;;;5094074;28;20459;-89
2023/10/15 11:34:22;;;;;;;5.32;0.90;;;11.70;99.90;;;;;;5077717;28;20035;-90
2023/10/15 11:36:50;;;;;;;2.25;0.45;;;11.80;99.90;;;;;;5087161;27;20092;-89
2023/10/15 11:39:37;;;;;;;3.55;0.28;;;12.00;99.90;;;;;;5077355;28;20425;-88
2023/10/15 11:42:04;;;;;;;2.10;0.40;;;12.10;99.90;;;;;;5093786;28;20508;-88
2023/10/15 11:44:33;;;;;;;2.13;0.30;;;12.10;99.90;;;;;;5076955;28;20077;-89
2023/10/15 11:47:09;;;;;;;1.50;0.40;;;12.20;99.90;;;;;;5076862;28;20089;-89
2023/10/15 11:49:38;;;;;;;4.38;1.20;;;12.30;99.90;;;;;;5085582;28;20499;-88
2023/10/15 11:52:11;;;;;;;1.33;0.35;;;12.50;99.90;;;;;;5078586;28;20127;-89
2023/10/15 11:54:43;;;;;;;8.52;1.58;;;12.50;99.90;;;;;;5080796;28;20126;-88
2023/10/15 11:57:16;;;;;;;4.15;0.57;;;12.70;99.90;;;;;;5102796;28;20045;-89
2023/10/15 11:59:45;;;;;;;4.60;0.50;;;12.80;99.90;;;;;;5084247;28;20088;-89
2023/10/15 12:02:11;;;;;;;6.03;0.88;;;12.90;99.90;;;;;;5102234;28;20035;-88
2023/10/15 12:04:40;;;;;;;2.42;0.47;;;13.00;99.90;;;;;;5085117;28;20043;-89
2023/10/15 12:07:15;;;;;;;6.22;0.70;;;13.10;99.90;;;;;;5099757;28;20486;-89
2023/10/15 12:09:44;;;;;;;4.15;0.65;;;13.00;99.90;;;;;;5119702;28;20035;-89
2023/10/15 12:12:11;;;;;;;1.75;0.40;;;13.10;99.90;;;;;;5083635;28;21539;-89
2023/10/15 12:14:37;;;;;;;2.72;0.38;;;13.20;99.90;;;;;;5082641;28;20042;-89
2023/10/15 12:17:04;;;;;;;3.60;0.47;;;13.30;99.90;;;;;;5082411;28;20039;-89
2023/10/15 12:19:30;;;;;;;2.08;0.32;;;13.40;99.90;;;;;;5102429;28;20051;-89
2023/10/15 12:21:58;;;;;;;4.75;1.20;;;13.50;99.90;;;;;;5082035;28;20081;-89
2023/10/15 12:24:25;;;;;;;3.97;0.50;;;13.50;99.90;;;;;;5101963;28;20074;-89
2023/10/15 12:26:50;;;;;;;7.72;1.33;;;13.60;99.90;;;;;;5084406;28;20062;-89
2023/10/15 12:29:17;;;;;;;3.88;0.80;;;13.70;99.90;;;;;;5106154;28;20497;-90
2023/10/15 12:31:43;;;;;;;6.82;1.55;;;13.90;99.90;;;;;;5099001;27;20502;-89
2023/10/15 12:34:11;;;;;;;3.30;0.55;;;14.20;99.90;;;;;;5086058;28;20118;-89
2023/10/15 12:36:38;;;;;;;2.67;0.40;;;14.30;99.90;;;;;;5104266;28;20464;-89
2023/10/15 12:39:05;;;;;;;9.25;2.03;;;14.40;99.90;;;;;;5090727;28;20544;-90
2023/10/15 12:41:31;;;;;;;6.20;1.10;;;14.60;99.90;;;;;;5089693;28;20110;-90
2023/10/15 12:44:00;;;;;;;5.32;0.55;;;14.80;99.90;;;;;;5102139;28;20082;-89
2023/10/15 12:46:29;;;;;;;2.05;0.40;;;15.00;99.90;;;;;;5090675;28;20046;-89
2023/10/15 12:48:56;;;;;;;4.78;0.68;;;15.40;99.90;;;;;;5105301;28;20031;-89
2023/10/15 12:51:22;;;;;;;8.30;1.27;;;16.00;97.90;;;;;;5089153;28;20039;-89
2023/10/15 12:53:48;;;;;;;6.53;1.40;;;16.50;95.20;;;;;;5086810;28;20072;-89
2023/10/15 12:56:13;;;;;;;9.07;1.52;;;17.00;90.90;;;;;;5094993;28;20120;-89
2023/10/15 12:58:39;;;;;;;3.63;0.63;;;17.40;83.80;;;;;;5101867;28;20042;-89
2023/10/15 13:01:06;;;;;;;7.50;1.35;;;17.70;86.20;;;;;;5076735;28;20405;-89
2023/10/15 13:03:33;;;;;;;5.40;1.00;;;18.20;83.60;;;;;;5078753;28;20042;-89
2023/10/15 13:05:59;;;;;;;6.53;1.17;;;19.30;83.30;;;;;;5099120;28;20043;-90
2023/10/15 13:08:25;;;;;;;8.65;1.35;;;20.70;80.10;;;;;;5096764;28;20043;-89
2023/10/15 13:10:51;;;;;;;4.53;1.10;;;22.10;74.60;;;;;;5097198;27;20494;-90
2023/10/15 13:13:16;;;;;;;5.88;1.20;;;23.40;69.70;;;;;;5098898;27;20039;-90
2023/10/15 13:15:42;;;;;;;7.38;1.50;;;24.60;66.20;;;;;;5095935;28;20043;-90
2023/10/15 13:18:08;;;;;;;5.70;1.30;;;25.50;62.50;;;;;;5082424;27;20097;-90
2023/10/15 13:20:33;;;;;;;6.53;1.63;;;26.50;61.00;;;;;;5104801;28;20035;-90
2023/10/15 13:22:59;;;;;;;5.82;1.38;;;26.80;57.90;;;;;;5079733;28;20093;-90
2023/10/15 13:25:25;;;;;;;6.00;1.25;;;26.10;55.50;;;;;;5098524;28;20461;-90